KBEDKSLK

Guest
Details From KBED - Laurence G Hanscom Fld
To KSLK - Adirondack Rgnl
Flight Number -
Tags Generated
Created
Modified
Stats Distance 172 nm / 318 km
Max Altitude 0 ft / 0 m
Waypoints 2
Social Downloads 0
Likes 0
Share VATSIM

Download

Looking for another format? Having issues loading an existing format? Contact us
Advertisement - Login to hide

Notes

Generated

Route

KBED KSLK

ID Type Via Altitude Latitude Longitude Leg Dist Tot Dist Heading (true) Name
O KBED APT - 0 ft / 0 m 42.46344˚ -71.29687˚ - 0 nm - -
O KSLK APT - 0 ft / 0 m 44.38050˚ -74.21385˚ 171 nm 171 nm 313° / 311° Adirondack Rgnl

Altitude Profile

Advertisement - Login to hide

Weather


0- 5 10 15 20 25 30 35+ Temperature / ° C

Clouds and Precipitation
Forecast for 2018-05-20 18:00 UTC. Updated 2 hours ago

Ground ~20,000 ft ~40,000 ft Winds

KBED

Details ICAO KBED (BED)
Name Laurence G Hanscom Field
Region United States
Timezone America/New_York (UTC-4.0)
Stats Elevation 133 ft / 41 m (AMSL)
Location 42.469826° -71.289318°
Runways 2
Magnetic Variation 14.559° W

METAR

KBED 201856Z 31005KT 10SM BKN018 BKN050 OVC075 23/21 A2983 RMK AO2 RAB05E44 SLP113 P0031 T02280206

Decode

TAF

TAF AMD KBED 201809Z 2018/2118 26008KT P6SM TSRA BKN035CB FM201900 27008KT P6SM -SHRA BKN035 FM202030 30007KT P6SM BKN040 FM202300 32005KT P6SM SCT045 FM211600 30004KT P6SM SKC

Decode

Departure Runways

ID Width Length Bearing (true) Bearing (mag) Surface Threshold Offset Overrun Length
05 151 ft / 46 m 5,105 ft / 1,556 m 37.02° 51.58° Asphalt 0 ft / 0 m 584 ft / 178 m
11 151 ft / 46 m 6,985 ft / 2,129 m 97.16° 111.72° Asphalt 0 ft / 0 m 1,001 ft / 305 m
23 151 ft / 46 m 5,105 ft / 1,556 m 217.03° 231.59° Asphalt 0 ft / 0 m 899 ft / 274 m
29 151 ft / 46 m 6,985 ft / 2,129 m 277.18° 291.74° Asphalt 0 ft / 0 m 1,040 ft / 317 m

KSLK

Details ICAO KSLK (SLK)
Name Adirondack Rgnl
Region United States
Timezone America/New_York (UTC-4.0)
Stats Elevation 1,663 ft / 507 m (AMSL)
Location 44.384569° -74.206212°
Runways 2
Magnetic Variation 13.735° W

METAR

KSLK 201910Z AUTO VRB05KT 10SM OVC010 12/11 A3000 RMK AO2 T01220111 $

Decode

TAF

TAF KSLK 201731Z 2018/2118 31010KT P6SM VCSH BKN018 FM202100 32010KT P6SM SCT020 FM210000 29007KT P6SM FEW250

Decode

Destination Runways

ID Width Length Bearing (true) Bearing (mag) Surface Threshold Offset Overrun Length
05 150 ft / 46 m 6,571 ft / 2,003 m 34.80° 48.53° Asphalt 0 ft / 0 m 0 ft / 0 m
09 100 ft / 30 m 3,989 ft / 1,216 m 79.08° 92.81° Asphalt 0 ft / 0 m 0 ft / 0 m
23 150 ft / 46 m 6,571 ft / 2,003 m 214.81° 228.54° Asphalt 0 ft / 0 m 0 ft / 0 m
27 100 ft / 30 m 3,989 ft / 1,216 m 259.10° 272.83° Asphalt 0 ft / 0 m 0 ft / 0 m

Approach Navaids

Runway Type Ident Frequency Range Bearing (true) Bearing (mag) Slope Elevation
23 Localiser ISLK 108.90 MHz 18 nm / 33 km 214.81° 228.54° - 1,630 ft / 497 m (AMSL)
23 Glidescope ISLK 108.90 MHz 10 nm / 19 km 214.81° 228.54° 3.00° 1,661 ft / 506 m (AMSL)